createdAt,value
2018-09-29T00:00:46.828Z,8.20
2018-09-29T00:04:50.625Z,8.10
2018-09-29T00:08:54.428Z,8.10
2018-09-29T00:12:58.364Z,8.00
2018-09-29T00:17:02.042Z,8.00
2018-09-29T00:21:05.773Z,7.90
2018-09-29T00:25:09.520Z,7.90
2018-09-29T00:29:13.204Z,7.80
2018-09-29T00:33:16.933Z,7.80
2018-09-29T00:37:20.590Z,7.70
2018-09-29T00:41:24.288Z,7.70
2018-09-29T00:45:28.036Z,7.60
2018-09-29T00:49:31.728Z,7.50
2018-09-29T00:53:35.529Z,7.50
2018-09-29T00:57:39.194Z,7.50
2018-09-29T01:01:42.865Z,7.40
2018-09-29T01:05:46.548Z,7.40
2018-09-29T01:09:50.333Z,7.40
2018-09-29T01:13:54.025Z,7.30
2018-09-29T01:17:57.698Z,7.30
2018-09-29T01:22:01.408Z,7.20
2018-09-29T01:26:05.253Z,7.20
2018-09-29T01:30:08.979Z,7.20
2018-09-29T01:34:12.716Z,7.10
2018-09-29T01:38:17.228Z,7.10
2018-09-29T01:42:20.901Z,7.00
2018-09-29T01:46:24.613Z,7.00
2018-09-29T01:50:28.324Z,7.00
2018-09-29T01:54:32.008Z,7.00
2018-09-29T01:58:35.682Z,6.90
2018-09-29T02:02:39.401Z,6.90
2018-09-29T02:06:43.129Z,6.80
2018-09-29T02:10:46.909Z,6.80
2018-09-29T02:14:50.649Z,6.70
2018-09-29T02:18:54.321Z,6.70
2018-09-29T02:22:58.017Z,6.70
2018-09-29T02:27:01.812Z,6.60
2018-09-29T02:31:05.515Z,6.60
2018-09-29T02:35:09.342Z,6.50
2018-09-29T02:39:13.451Z,6.50
2018-09-29T02:43:17.175Z,6.40
2018-09-29T02:47:21.061Z,6.40
2018-09-29T02:51:24.749Z,6.30
2018-09-29T02:55:28.466Z,6.20
2018-09-29T02:59:32.194Z,6.30
2018-09-29T03:03:35.844Z,6.20
2018-09-29T03:07:39.618Z,6.20
2018-09-29T03:11:43.327Z,6.20
2018-09-29T03:15:47.059Z,6.10
2018-09-29T03:19:50.774Z,6.10
2018-09-29T03:23:54.457Z,6.10
2018-09-29T03:27:58.189Z,6.10
2018-09-29T03:32:01.981Z,6.00
2018-09-29T03:36:05.722Z,5.90
2018-09-29T03:40:09.413Z,5.90
2018-09-29T03:44:13.079Z,5.90
2018-09-29T03:48:16.764Z,5.90
2018-09-29T03:52:20.442Z,5.90
2018-09-29T03:56:24.153Z,5.80
2018-09-29T04:00:27.939Z,5.80
2018-09-29T04:04:31.609Z,5.70
2018-09-29T04:08:35.672Z,5.70
2018-09-29T04:12:39.489Z,5.70
2018-09-29T04:16:43.206Z,5.70
2018-09-29T04:20:46.902Z,5.60
2018-09-29T04:24:50.581Z,5.60
2018-09-29T04:28:54.445Z,5.60
2018-09-29T04:32:58.250Z,5.60
2018-09-29T04:37:01.967Z,5.50
2018-09-29T04:41:05.694Z,5.50
2018-09-29T04:45:09.377Z,5.50
2018-09-29T04:49:13.209Z,5.50
2018-09-29T04:53:16.875Z,5.40
2018-09-29T04:57:20.573Z,5.40
2018-09-29T05:01:24.293Z,5.40
2018-09-29T05:05:27.974Z,5.30
2018-09-29T05:09:31.674Z,5.30
2018-09-29T05:13:35.498Z,5.30
2018-09-29T05:17:39.217Z,5.30
2018-09-29T05:21:42.928Z,5.20
2018-09-29T05:25:46.730Z,5.20
2018-09-29T05:29:50.455Z,5.20
2018-09-29T05:33:54.205Z,5.20
2018-09-29T05:37:57.909Z,5.10
2018-09-29T05:42:01.610Z,5.10
2018-09-29T05:46:05.282Z,5.10
2018-09-29T05:50:09.428Z,5.10
2018-09-29T05:54:13.122Z,5.10
2018-09-29T05:58:16.813Z,5.10
2018-09-29T06:02:20.518Z,5.10
2018-09-29T06:06:24.226Z,5.20
2018-09-29T06:10:27.933Z,5.20
2018-09-29T06:14:31.645Z,5.20
2018-09-29T06:18:35.425Z,5.20
2018-09-29T06:22:39.137Z,5.30
2018-09-29T06:26:42.866Z,5.40
2018-09-29T06:30:46.702Z,5.50
2018-09-29T06:34:50.457Z,5.50
2018-09-29T06:38:54.186Z,5.60
2018-09-29T06:42:57.921Z,5.70
2018-09-29T06:47:01.577Z,5.70
2018-09-29T06:51:05.277Z,5.80
2018-09-29T06:55:08.990Z,5.90
2018-09-29T06:59:12.700Z,6.00
2018-09-29T07:03:16.367Z,6.20
2018-09-29T07:07:20.074Z,6.20
2018-09-29T07:11:23.817Z,6.40
2018-09-29T07:15:27.614Z,6.50
2018-09-29T07:19:31.371Z,6.60
2018-09-29T07:23:35.085Z,6.70
2018-09-29T07:27:38.797Z,6.80
2018-09-29T07:31:42.495Z,7.00
2018-09-29T07:35:46.245Z,7.20
2018-09-29T07:39:49.945Z,7.30
2018-09-29T07:43:53.620Z,7.30
2018-09-29T07:47:57.426Z,7.40
2018-09-29T07:52:01.136Z,7.50
2018-09-29T07:56:05.498Z,7.70
2018-09-29T08:00:09.233Z,7.80
2018-09-29T08:04:13.611Z,7.90
2018-09-29T08:08:17.427Z,8.00
2018-09-29T08:12:21.167Z,8.20
2018-09-29T08:16:25.489Z,8.30
2018-09-29T08:20:29.192Z,8.50
2018-09-29T08:24:32.997Z,8.60
2018-09-29T08:28:36.688Z,8.80
2018-09-29T08:32:40.527Z,8.90
2018-09-29T08:36:44.325Z,9.10
2018-09-29T08:40:48.021Z,9.20
2018-09-29T08:44:51.717Z,9.30
2018-09-29T08:48:55.432Z,9.40
2018-09-29T08:52:59.144Z,9.60
2018-09-29T08:57:02.865Z,9.70
2018-09-29T09:01:06.865Z,9.90
2018-09-29T09:05:10.557Z,10.00
2018-09-29T09:09:14.328Z,10.10
2018-09-29T09:13:18.022Z,10.20
2018-09-29T09:17:21.742Z,10.40
2018-09-29T09:21:25.467Z,10.50
2018-09-29T09:25:29.137Z,10.60
2018-09-29T09:29:32.836Z,10.70
2018-09-29T09:33:36.582Z,10.80
2018-09-29T09:37:42.334Z,10.90
2018-09-29T09:41:46.073Z,11.00
2018-09-29T09:45:49.906Z,11.20
2018-09-29T09:49:53.851Z,11.30
2018-09-29T09:53:57.565Z,11.40
2018-09-29T09:58:01.282Z,11.50
2018-09-29T10:02:10.151Z,11.70
2018-09-29T10:06:13.944Z,11.70
2018-09-29T10:10:17.662Z,11.90
2018-09-29T10:14:21.382Z,11.90
2018-09-29T10:18:25.112Z,12.00
2018-09-29T10:22:28.835Z,12.10
2018-09-29T10:26:32.658Z,12.20
2018-09-29T10:30:36.350Z,12.20
2018-09-29T10:34:40.090Z,12.30
2018-09-29T10:38:43.805Z,12.40
2018-09-29T10:42:47.517Z,12.50
2018-09-29T10:46:51.248Z,12.60
2018-09-29T10:50:54.962Z,12.70
2018-09-29T10:54:58.717Z,12.80
2018-09-29T10:59:02.523Z,12.90
2018-09-29T11:03:06.237Z,13.00
2018-09-29T11:07:10.098Z,13.10
2018-09-29T11:11:14.266Z,13.20
2018-09-29T11:15:18.033Z,13.20
2018-09-29T11:19:21.757Z,13.30
2018-09-29T11:23:25.480Z,13.40
2018-09-29T11:27:29.226Z,13.50
2018-09-29T11:31:32.941Z,13.60
2018-09-29T11:35:36.690Z,13.70
2018-09-29T11:39:40.557Z,13.80
2018-09-29T11:43:44.293Z,13.90
2018-09-29T11:47:48.258Z,14.00
2018-09-29T11:51:51.965Z,14.10
2018-09-29T11:55:55.682Z,14.20
2018-09-29T11:59:59.414Z,14.20
2018-09-29T12:04:03.205Z,14.30
2018-09-29T12:08:07.047Z,14.40
2018-09-29T12:12:10.770Z,14.60
2018-09-29T12:16:14.596Z,14.70
2018-09-29T12:20:18.333Z,14.80
2018-09-29T12:24:22.094Z,14.90
2018-09-29T12:28:25.837Z,15.00
2018-09-29T12:32:29.652Z,15.10
2018-09-29T12:36:33.362Z,15.30
2018-09-29T12:40:37.089Z,15.50
2018-09-29T12:44:41.004Z,15.60
2018-09-29T12:48:44.804Z,15.70
2018-09-29T12:52:48.487Z,15.90
2018-09-29T12:56:52.239Z,16.00
2018-09-29T13:00:56.095Z,16.20
2018-09-29T13:04:59.849Z,16.30
2018-09-29T13:09:05.249Z,16.50
2018-09-29T13:13:09.010Z,16.60
2018-09-29T13:17:12.727Z,16.80
2018-09-29T13:21:16.486Z,17.00
2018-09-29T13:25:20.215Z,17.10
2018-09-29T13:29:24.031Z,17.20
2018-09-29T13:33:27.770Z,17.30
2018-09-29T13:37:31.509Z,17.30
2018-09-29T13:41:35.312Z,17.40
2018-09-29T13:45:39.056Z,17.50
2018-09-29T13:49:42.773Z,17.60
2018-09-29T13:53:46.555Z,17.70
2018-09-29T13:57:50.266Z,17.80
2018-09-29T14:01:53.986Z,17.80
2018-09-29T14:05:57.720Z,17.90
2018-09-29T14:10:01.566Z,18.00
2018-09-29T14:14:05.977Z,18.10
2018-09-29T14:18:09.695Z,18.10
2018-09-29T14:22:13.463Z,18.20
2018-09-29T14:26:17.153Z,18.20
2018-09-29T14:30:20.900Z,18.40
2018-09-29T14:34:24.621Z,18.40
2018-09-29T14:38:28.365Z,18.50
2018-09-29T14:42:32.135Z,18.50
2018-09-29T14:46:35.917Z,18.50
2018-09-29T14:50:39.638Z,18.60
2018-09-29T14:54:43.409Z,18.90
2018-09-29T14:58:47.114Z,19.30
2018-09-29T15:02:50.830Z,19.60
2018-09-29T15:06:54.559Z,20.00
2018-09-29T15:10:58.312Z,20.10
2018-09-29T15:15:02.120Z,20.00
2018-09-29T15:19:05.936Z,20.00
2018-09-29T15:23:09.715Z,19.80
2018-09-29T15:27:13.447Z,19.60
2018-09-29T15:31:17.167Z,19.40
2018-09-29T15:35:20.905Z,19.20
2018-09-29T15:39:24.750Z,19.00
2018-09-29T15:43:28.486Z,18.90
2018-09-29T15:47:32.193Z,18.70
2018-09-29T15:51:36.357Z,18.60
2018-09-29T15:55:40.176Z,18.40
2018-09-29T15:59:43.953Z,18.40
2018-09-29T16:03:47.703Z,18.30
2018-09-29T16:07:51.468Z,18.20
2018-09-29T16:11:55.238Z,18.10
2018-09-29T16:15:58.961Z,18.00
2018-09-29T16:20:02.692Z,17.90
2018-09-29T16:24:06.460Z,17.80
2018-09-29T16:28:10.353Z,17.60
2018-09-29T16:32:14.112Z,17.60
2018-09-29T16:36:17.882Z,17.40
2018-09-29T16:40:21.698Z,17.30
2018-09-29T16:44:25.450Z,17.10
2018-09-29T16:48:29.228Z,17.00
2018-09-29T16:52:32.995Z,16.80
2018-09-29T16:56:36.785Z,16.60
2018-09-29T17:00:40.593Z,15.80
2018-09-29T17:04:44.446Z,16.30
2018-09-29T17:08:48.233Z,16.10
2018-09-29T17:12:52.009Z,16.00
2018-09-29T17:16:55.717Z,15.80
2018-09-29T17:20:59.800Z,15.60
2018-09-29T17:25:03.564Z,15.50
2018-09-29T17:29:07.340Z,15.30
2018-09-29T17:33:11.126Z,15.20
2018-09-29T17:37:14.886Z,15.00
2018-09-29T17:41:18.673Z,14.80
2018-09-29T17:45:22.494Z,14.70
2018-09-29T17:49:26.285Z,14.50
2018-09-29T17:53:30.129Z,14.40
2018-09-29T17:57:33.832Z,14.20
2018-09-29T18:01:37.725Z,14.10
2018-09-29T18:05:41.496Z,14.00
2018-09-29T18:09:46.919Z,13.90
2018-09-29T18:13:53.211Z,13.70
2018-09-29T18:17:58.921Z,13.60
2018-09-29T18:22:04.292Z,13.40
2018-09-29T18:26:09.975Z,13.30
2018-09-29T18:30:15.410Z,13.10
2018-09-29T18:34:21.610Z,13.00
2018-09-29T18:38:26.616Z,12.90
2018-09-29T18:42:31.341Z,12.80
2018-09-29T18:46:35.768Z,12.70
2018-09-29T18:50:39.626Z,12.60
2018-09-29T18:54:43.725Z,12.50
2018-09-29T18:58:49.246Z,12.40
2018-09-29T19:02:54.524Z,12.30
2018-09-29T19:07:00.024Z,12.20
2018-09-29T19:11:03.752Z,12.10
2018-09-29T19:15:07.667Z,12.00
2018-09-29T19:19:12.568Z,11.90
2018-09-29T19:23:16.356Z,11.80
2018-09-29T19:27:20.720Z,11.70
2018-09-29T19:31:24.462Z,11.60
2018-09-29T19:35:28.445Z,11.50
2018-09-29T19:39:32.247Z,11.40
2018-09-29T19:43:35.965Z,11.30
2018-09-29T19:47:39.682Z,11.30
2018-09-29T19:51:43.397Z,11.20
2018-09-29T19:55:47.108Z,11.10
2018-09-29T19:59:50.894Z,11.00
2018-09-29T20:03:54.614Z,10.90
2018-09-29T20:07:58.390Z,10.90
2018-09-29T20:12:02.214Z,10.80
2018-09-29T20:16:05.982Z,10.70
2018-09-29T20:20:09.702Z,10.60
2018-09-29T20:24:13.501Z,10.50
2018-09-29T20:28:17.193Z,10.40
2018-09-29T20:32:21.116Z,10.30
2018-09-29T20:36:24.842Z,10.20
2018-09-29T20:40:28.573Z,10.20
2018-09-29T20:44:32.241Z,10.10
2018-09-29T20:48:36.004Z,10.00
2018-09-29T20:52:39.726Z,10.00
2018-09-29T20:56:43.442Z,9.90
2018-09-29T21:00:47.229Z,9.80
2018-09-29T21:04:50.947Z,9.80
2018-09-29T21:08:54.702Z,9.70
2018-09-29T21:12:58.506Z,9.60
2018-09-29T21:17:02.168Z,9.50
2018-09-29T21:21:05.886Z,9.40
2018-09-29T21:25:09.622Z,9.40
2018-09-29T21:29:13.349Z,9.30
2018-09-29T21:33:17.102Z,9.20
2018-09-29T21:37:20.814Z,9.10
2018-09-29T21:41:24.628Z,9.10
2018-09-29T21:45:28.357Z,9.00
2018-09-29T21:49:32.182Z,9.00
2018-09-29T21:53:35.905Z,8.90
2018-09-29T21:57:39.636Z,8.90
2018-09-29T22:01:43.394Z,8.90
2018-09-29T22:05:47.167Z,8.90
2018-09-29T22:09:50.917Z,8.80
2018-09-29T22:13:55.119Z,8.70
2018-09-29T22:17:58.888Z,8.70
2018-09-29T22:22:02.629Z,8.70
2018-09-29T22:26:06.377Z,8.60
2018-09-29T22:30:10.143Z,8.60
2018-09-29T22:34:14.051Z,8.50
2018-09-29T22:38:17.849Z,8.50
2018-09-29T22:42:21.530Z,8.40
2018-09-29T22:46:25.240Z,8.40
2018-09-29T22:50:29.014Z,8.30
2018-09-29T22:54:32.758Z,8.30
2018-09-29T22:58:36.497Z,8.20
2018-09-29T23:02:40.205Z,8.20
2018-09-29T23:06:43.929Z,8.10
2018-09-29T23:10:47.794Z,8.10
2018-09-29T23:14:51.533Z,8.00
2018-09-29T23:18:55.392Z,8.00
2018-09-29T23:22:59.072Z,7.90
2018-09-29T23:27:05.567Z,7.90
2018-09-29T23:31:09.299Z,7.80
2018-09-29T23:35:13.063Z,7.70
2018-09-29T23:39:16.777Z,7.70
2018-09-29T23:43:20.480Z,7.70
2018-09-29T23:47:24.205Z,7.60
2018-09-29T23:51:27.942Z,7.50
2018-09-29T23:55:31.734Z,7.50
2018-09-29T23:59:35.435Z,7.40
